Time,TemperatureF,DewpointF,PressureIn,WindDirection,WindDirectionDegrees,WindSpeedMPH,WindSpeedGustMPH,Humidity,HourlyPrecipIn,Conditions,Clouds,dailyrainin,SoftwareType,DateUTC
2014-09-22 00:00:00,69.1,59.3,29.66,NW,323,3.0,6.0,71,0.00,,,0.00,WeatherCatV1.24B11,2014-09-22 04:00:00,
2014-09-22 00:05:00,68.8,59.4,29.66,NNW,338,0.0,1.0,72,0.00,,,0.00,WeatherCatV1.24B11,2014-09-22 04:05:00,
2014-09-22 00:10:00,68.5,58.7,29.67,West,281,5.0,7.0,71,0.00,,,0.00,WeatherCatV1.24B11,2014-09-22 04:10:00,
2014-09-22 00:15:00,68.5,57.9,29.67,West,272,11.0,14.0,69,0.00,,,0.00,WeatherCatV1.24B11,2014-09-22 04:15:00,
2014-09-22 00:20:00,68.7,57.7,29.68,WSW,244,7.0,12.0,68,0.00,,,0.00,WeatherCatV1.24B11,2014-09-22 04:20:00,
2014-09-22 00:25:00,68.5,57.5,29.68,West,259,3.0,6.0,68,0.00,,,0.00,WeatherCatV1.24B11,2014-09-22 04:25:00,
2014-09-22 00:30:00,68.1,56.7,29.69,West,261,0.0,5.0,67,0.00,,,0.00,WeatherCatV1.24B11,2014-09-22 04:30:00,
2014-09-22 00:32:00,68.0,56.6,29.69,West,261,1.0,1.0,67,0.00,,,0.00,WeatherCatV1.24B11,2014-09-22 04:32:00,
2014-09-22 00:37:00,68.0,56.2,29.69,NW,318,0.0,5.0,66,0.00,,,0.00,WeatherCatV1.24B11,2014-09-22 04:37:00,
2014-09-22 00:41:00,67.9,56.1,29.69,NW,316,3.0,3.0,66,0.00,,,0.00,WeatherCatV1.24B11,2014-09-22 04:41:00,
2014-09-22 00:46:00,68.0,55.8,29.68,West,280,1.0,4.0,65,0.00,,,0.00,WeatherCatV1.24B11,2014-09-22 04:46:00,
2014-09-22 00:51:00,67.9,55.7,29.69,NW,317,2.0,7.0,65,0.00,,,0.00,WeatherCatV1.24B11,2014-09-22 04:51:00,
2014-09-22 00:56:00,67.7,55.5,29.69,NW,315,5.0,8.0,65,0.00,,,0.00,WeatherCatV1.24B11,2014-09-22 04:56:00,
2014-09-22 01:01:00,67.5,55.7,29.69,WNW,299,6.0,6.0,66,0.00,,,0.00,WeatherCatV1.24B11,2014-09-22 05:01:00,
2014-09-22 01:06:00,67.2,55.5,29.69,West,281,6.0,10.0,66,0.00,,,0.00,WeatherCatV1.24B11,2014-09-22 05:06:00,
2014-09-22 01:11:00,67.0,55.7,29.69,West,279,10.0,11.0,67,0.00,,,0.00,WeatherCatV1.24B11,2014-09-22 05:11:00,
2014-09-22 01:16:00,66.8,55.1,29.70,NW,323,11.0,14.0,66,0.00,,,0.00,WeatherCatV1.24B11,2014-09-22 05:16:00,
2014-09-22 01:21:00,66.8,54.7,29.70,WNW,290,9.0,18.0,65,0.00,,,0.00,WeatherCatV1.24B11,2014-09-22 05:21:00,
2014-09-22 01:26:00,66.6,54.5,29.70,NW,307,8.0,14.0,65,0.00,,,0.00,WeatherCatV1.24B11,2014-09-22 05:26:00,
2014-09-22 01:31:00,66.3,54.2,29.70,West,276,7.0,11.0,65,0.00,,,0.00,WeatherCatV1.24B11,2014-09-22 05:31:00,
2014-09-22 01:36:00,66.0,53.9,29.70,WNW,292,2.0,11.0,65,0.00,,,0.00,WeatherCatV1.24B11,2014-09-22 05:36:00,
2014-09-22 01:41:00,65.7,54.0,29.70,WNW,290,9.0,9.0,66,0.00,,,0.00,WeatherCatV1.24B11,2014-09-22 05:41:00,
2014-09-22 01:46:00,65.4,53.7,29.71,West,267,9.0,14.0,66,0.00,,,0.00,WeatherCatV1.24B11,2014-09-22 05:46:00,
2014-09-22 01:51:00,65.2,54.0,29.71,WNW,283,11.0,12.0,67,0.00,,,0.00,WeatherCatV1.24B11,2014-09-22 05:51:00,
2014-09-22 01:54:00,65.2,54.0,29.71,West,281,10.0,16.0,67,0.00,,,0.00,WeatherCatV1.24B11,2014-09-22 05:54:00,
2014-09-22 01:55:00,65.2,54.0,29.71,WNW,287,3.0,7.0,67,0.00,,,0.00,WeatherCatV1.24B11,2014-09-22 05:55:00,
2014-09-22 02:00:00,65.2,54.0,29.71,NW,311,11.0,14.0,67,0.00,,,0.00,WeatherCatV1.24B11,2014-09-22 06:00:00,
2014-09-22 02:05:00,65.0,53.8,29.71,NW,307,6.0,13.0,67,0.00,,,0.00,WeatherCatV1.24B11,2014-09-22 06:05:00,
2014-09-22 02:10:00,64.8,53.6,29.71,West,275,12.0,18.0,67,0.00,,,0.00,WeatherCatV1.24B11,2014-09-22 06:10:00,
2014-09-22 02:15:00,64.6,53.4,29.71,WNW,293,13.0,18.0,67,0.00,,,0.00,WeatherCatV1.24B11,2014-09-22 06:15:00,
2014-09-22 02:20:00,64.4,53.6,29.71,West,281,10.0,10.0,68,0.00,,,0.00,WeatherCatV1.24B11,2014-09-22 06:20:00,
2014-09-22 02:25:00,64.3,53.5,29.72,NW,313,2.0,9.0,68,0.00,,,0.00,WeatherCatV1.24B11,2014-09-22 06:25:00,
2014-09-22 02:30:00,64.0,53.2,29.72,NNW,327,1.0,7.0,68,0.00,,,0.00,WeatherCatV1.24B11,2014-09-22 06:30:00,
2014-09-22 02:35:00,63.8,53.4,29.72,West,269,5.0,11.0,69,0.00,,,0.00,WeatherCatV1.24B11,2014-09-22 06:35:00,
2014-09-22 02:40:00,63.6,53.6,29.73,West,275,0.0,7.0,70,0.00,,,0.00,WeatherCatV1.24B11,2014-09-22 06:40:00,
2014-09-22 02:45:00,63.4,53.4,29.73,NNE,15,4.0,7.0,70,0.00,,,0.00,WeatherCatV1.24B11,2014-09-22 06:45:00,
2014-09-22 02:50:00,63.2,53.2,29.73,WNW,298,2.0,11.0,70,0.00,,,0.00,WeatherCatV1.24B11,2014-09-22 06:50:00,
2014-09-22 02:55:00,63.2,53.2,29.73,WNW,298,0.0,3.0,70,0.00,,,0.00,WeatherCatV1.24B11,2014-09-22 06:55:00,
2014-09-22 03:00:00,63.1,53.2,29.73,WNW,294,2.0,9.0,70,0.00,,,0.00,WeatherCatV1.24B11,2014-09-22 07:00:00,
2014-09-22 03:05:00,63.0,53.4,29.73,WNW,291,3.0,5.0,71,0.00,,,0.00,WeatherCatV1.24B11,2014-09-22 07:05:00,
2014-09-22 03:10:00,62.7,53.2,29.73,WNW,292,2.0,5.0,71,0.00,,,0.00,WeatherCatV1.24B11,2014-09-22 07:10:00,
2014-09-22 03:15:00,62.2,53.1,29.73,WNW,292,1.0,2.0,72,0.00,,,0.00,WeatherCatV1.24B11,2014-09-22 07:15:00,
2014-09-22 03:20:00,62.0,53.2,29.73,West,260,6.0,7.0,73,0.00,,,0.00,WeatherCatV1.24B11,2014-09-22 07:20:00,
2014-09-22 03:25:00,61.8,53.0,29.73,West,280,4.0,7.0,73,0.00,,,0.00,WeatherCatV1.24B11,2014-09-22 07:25:00,
2014-09-22 03:30:00,61.6,53.2,29.73,West,280,0.0,0.0,74,0.00,,,0.00,WeatherCatV1.24B11,2014-09-22 07:30:00,
2014-09-22 03:35:00,61.5,53.1,29.74,WNW,300,0.0,0.0,74,0.00,,,0.00,WeatherCatV1.24B11,2014-09-22 07:35:00,
2014-09-22 03:40:00,61.5,53.1,29.74,NW,321,3.0,7.0,74,0.00,,,0.00,WeatherCatV1.24B11,2014-09-22 07:40:00,
2014-09-22 03:45:00,61.5,53.1,29.74,NW,321,0.0,0.0,74,0.00,,,0.00,WeatherCatV1.24B11,2014-09-22 07:45:00,
2014-09-22 03:50:00,61.4,53.0,29.74,NW,321,0.0,0.0,74,0.00,,,0.00,WeatherCatV1.24B11,2014-09-22 07:50:00,
2014-09-22 03:55:00,61.3,52.9,29.74,NW,322,0.0,1.0,74,0.00,,,0.00,WeatherCatV1.24B11,2014-09-22 07:55:00,
2014-09-22 04:00:00,61.4,53.0,29.75,WNW,292,0.0,3.0,74,0.00,,,0.00,WeatherCatV1.24B11,2014-09-22 08:00:00,
2014-09-22 04:05:00,61.3,53.3,29.75,NW,311,0.0,0.0,75,0.00,,,0.00,WeatherCatV1.24B11,2014-09-22 08:05:00,
2014-09-22 04:10:00,61.1,53.1,29.75,NW,304,3.0,4.0,75,0.00,,,0.00,WeatherCatV1.24B11,2014-09-22 08:10:00,
2014-09-22 04:15:00,61.3,53.3,29.75,WNW,283,6.0,8.0,75,0.00,,,0.00,WeatherCatV1.24B11,2014-09-22 08:15:00,
2014-09-22 04:20:00,61.5,53.5,29.74,West,279,8.0,12.0,75,0.00,,,0.00,WeatherCatV1.24B11,2014-09-22 08:20:00,
2014-09-22 04:22:00,61.5,53.5,29.74,West,279,7.0,7.0,75,0.00,,,0.00,WeatherCatV1.24B11,2014-09-22 08:22:00,
2014-09-22 04:27:00,61.6,53.6,29.75,WNW,300,8.0,13.0,75,0.00,,,0.00,WeatherCatV1.24B11,2014-09-22 08:27:00,
2014-09-22 04:31:00,61.4,53.4,29.75,WNW,283,3.0,11.0,75,0.00,,,0.00,WeatherCatV1.24B11,2014-09-22 08:31:00,
2014-09-22 04:36:00,61.4,53.4,29.75,West,273,3.0,10.0,75,0.00,,,0.00,WeatherCatV1.24B11,2014-09-22 08:36:00,
2014-09-22 04:40:00,61.4,53.4,29.75,WNW,282,4.0,12.0,75,0.00,,,0.00,WeatherCatV1.24B11,2014-09-22 08:40:00,
2014-09-22 04:45:00,61.2,53.6,29.76,WNW,292,3.0,10.0,76,0.00,,,0.00,WeatherCatV1.24B11,2014-09-22 08:45:00,
2014-09-22 04:50:00,61.0,53.4,29.76,West,281,5.0,12.0,76,0.00,,,0.00,WeatherCatV1.24B11,2014-09-22 08:50:00,
2014-09-22 04:55:00,60.8,53.5,29.76,WNW,290,2.0,10.0,77,0.00,,,0.00,WeatherCatV1.24B11,2014-09-22 08:55:00,
2014-09-22 05:00:00,60.6,53.3,29.77,West,272,0.0,10.0,77,0.00,,,0.00,WeatherCatV1.24B11,2014-09-22 09:00:00,
2014-09-22 05:05:00,60.3,53.1,29.77,West,272,0.0,0.0,77,0.00,,,0.00,WeatherCatV1.24B11,2014-09-22 09:05:00,
2014-09-22 05:10:00,60.0,53.1,29.77,WNW,284,2.0,5.0,78,0.00,,,0.00,WeatherCatV1.24B11,2014-09-22 09:10:00,
2014-09-22 05:15:00,60.0,53.1,29.77,WNW,285,1.0,7.0,78,0.00,,,0.00,WeatherCatV1.24B11,2014-09-22 09:15:00,
2014-09-22 05:20:00,59.8,53.3,29.77,WNW,289,3.0,6.0,79,0.00,,,0.00,WeatherCatV1.24B11,2014-09-22 09:20:00,
2014-09-22 05:25:00,59.5,53.0,29.78,WNW,284,6.0,6.0,79,0.00,,,0.00,WeatherCatV1.24B11,2014-09-22 09:25:00,
2014-09-22 05:30:00,59.4,53.2,29.78,WNW,296,3.0,9.0,80,0.00,,,0.00,WeatherCatV1.24B11,2014-09-22 09:30:00,
2014-09-22 05:35:00,59.5,53.3,29.78,West,277,0.0,9.0,80,0.00,,,0.00,WeatherCatV1.24B11,2014-09-22 09:35:00,
2014-09-22 05:40:00,59.6,53.4,29.78,WNW,284,0.0,6.0,80,0.00,,,0.00,WeatherCatV1.24B11,2014-09-22 09:40:00,
2014-09-22 05:45:00,59.5,53.3,29.79,WNW,294,0.0,3.0,80,0.00,,,0.00,WeatherCatV1.24B11,2014-09-22 09:45:00,
2014-09-22 05:50:00,59.5,53.3,29.79,WNW,288,0.0,3.0,80,0.00,,,0.00,WeatherCatV1.24B11,2014-09-22 09:50:00,
2014-09-22 05:55:00,59.4,53.2,29.80,NW,307,4.0,5.0,80,0.00,,,0.00,WeatherCatV1.24B11,2014-09-22 09:55:00,
2014-09-22 06:00:00,59.3,53.1,29.80,NW,305,0.0,0.0,80,0.00,,,0.00,WeatherCatV1.24B11,2014-09-22 10:00:00,
2014-09-22 06:05:00,59.1,52.9,29.81,NW,305,0.0,0.0,80,0.00,,,0.00,WeatherCatV1.24B11,2014-09-22 10:05:00,
2014-09-22 06:10:00,59.0,53.2,29.82,NW,305,0.0,3.0,81,0.00,,,0.00,WeatherCatV1.24B11,2014-09-22 10:10:00,
2014-09-22 06:15:00,59.0,53.2,29.82,NW,305,0.0,2.0,81,0.00,,,0.00,WeatherCatV1.24B11,2014-09-22 10:15:00,
2014-09-22 06:20:00,58.7,53.2,29.82,NW,305,0.0,0.0,82,0.00,,,0.00,WeatherCatV1.24B11,2014-09-22 10:20:00,
2014-09-22 06:25:00,58.4,52.9,29.82,NW,305,0.0,0.0,82,0.00,,,0.00,WeatherCatV1.24B11,2014-09-22 10:25:00,
2014-09-22 06:30:00,58.0,52.9,29.82,NW,305,0.0,0.0,83,0.00,,,0.00,WeatherCatV1.24B11,2014-09-22 10:30:00,
2014-09-22 06:35:00,57.5,52.7,29.83,NW,304,0.0,0.0,84,0.00,,,0.00,WeatherCatV1.24B11,2014-09-22 10:35:00,
2014-09-22 06:40:00,56.9,52.4,29.83,NW,305,0.0,0.0,85,0.00,,,0.00,WeatherCatV1.24B11,2014-09-22 10:40:00,
2014-09-22 06:45:00,56.3,51.8,29.83,NW,305,0.0,0.0,85,0.00,,,0.00,WeatherCatV1.24B11,2014-09-22 10:45:00,
2014-09-22 06:50:00,55.7,51.9,29.83,NW,305,0.0,0.0,87,0.00,,,0.00,WeatherCatV1.24B11,2014-09-22 10:50:00,
2014-09-22 06:55:00,55.8,52.3,29.83,NW,304,0.0,5.0,88,0.00,,,0.00,WeatherCatV1.24B11,2014-09-22 10:55:00,
2014-09-22 07:00:00,56.5,53.0,29.84,WNW,299,0.0,4.0,88,0.00,,,0.00,WeatherCatV1.24B11,2014-09-22 11:00:00,
2014-09-22 07:05:00,56.8,53.0,29.84,WNW,299,0.0,0.0,87,0.00,,,0.00,WeatherCatV1.24B11,2014-09-22 11:05:00,
2014-09-22 07:10:00,57.1,53.3,29.85,WNW,284,2.0,7.0,87,0.00,,,0.00,WeatherCatV1.24B11,2014-09-22 11:10:00,
2014-09-22 07:15:00,57.5,53.3,29.85,WNW,284,0.0,5.0,86,0.00,,,0.00,WeatherCatV1.24B11,2014-09-22 11:15:00,
2014-09-22 07:20:00,57.6,53.4,29.85,WNW,284,0.0,0.0,86,0.00,,,0.00,WeatherCatV1.24B11,2014-09-22 11:20:00,
2014-09-22 07:25:00,57.6,53.4,29.86,WNW,284,0.0,3.0,86,0.00,,,0.00,WeatherCatV1.24B11,2014-09-22 11:25:00,
2014-09-22 07:30:00,57.7,53.5,29.86,WNW,283,4.0,4.0,86,0.00,,,0.00,WeatherCatV1.24B11,2014-09-22 11:30:00,
2014-09-22 07:35:00,57.8,53.6,29.86,WNW,289,3.0,9.0,86,0.00,,,0.00,WeatherCatV1.24B11,2014-09-22 11:35:00,
2014-09-22 07:40:00,58.0,53.8,29.86,WNW,302,5.0,5.0,86,0.00,,,0.00,WeatherCatV1.24B11,2014-09-22 11:40:00,
2014-09-22 07:45:00,58.1,53.9,29.86,West,263,3.0,8.0,86,0.00,,,0.00,WeatherCatV1.24B11,2014-09-22 11:45:00,
2014-09-22 07:50:00,58.2,54.0,29.86,West,278,3.0,5.0,86,0.00,,,0.00,WeatherCatV1.24B11,2014-09-22 11:50:00,
2014-09-22 07:55:00,58.3,53.8,29.87,West,277,1.0,7.0,85,0.00,,,0.00,WeatherCatV1.24B11,2014-09-22 11:55:00,
2014-09-22 08:00:00,58.5,54.0,29.87,West,262,0.0,4.0,85,0.00,,,0.00,WeatherCatV1.24B11,2014-09-22 12:00:00,
2014-09-22 08:05:00,58.6,54.1,29.87,WSW,257,0.0,7.0,85,0.00,,,0.00,WeatherCatV1.24B11,2014-09-22 12:05:00,
2014-09-22 08:10:00,59.0,54.5,29.87,NW,320,0.0,6.0,85,0.00,,,0.00,WeatherCatV1.24B11,2014-09-22 12:10:00,
2014-09-22 08:15:00,59.0,54.2,29.87,WNW,288,3.0,9.0,84,0.00,,,0.00,WeatherCatV1.24B11,2014-09-22 12:15:00,
2014-09-22 08:20:00,59.1,53.9,29.87,West,267,5.0,11.0,83,0.00,,,0.00,WeatherCatV1.24B11,2014-09-22 12:20:00,
2014-09-22 08:25:00,59.3,54.1,29.88,WNW,283,2.0,5.0,83,0.00,,,0.00,WeatherCatV1.24B11,2014-09-22 12:25:00,
2014-09-22 08:30:00,59.5,54.3,29.88,WNW,296,6.0,7.0,83,0.00,,,0.00,WeatherCatV1.24B11,2014-09-22 12:30:00,
2014-09-22 08:35:00,59.6,54.1,29.88,WNW,298,3.0,10.0,82,0.00,,,0.00,WeatherCatV1.24B11,2014-09-22 12:35:00,
2014-09-22 08:40:00,59.8,54.6,29.88,NNW,331,1.0,5.0,83,0.00,,,0.00,WeatherCatV1.24B11,2014-09-22 12:40:00,
2014-09-22 08:45:00,59.9,54.0,29.89,NW,321,3.0,13.0,81,0.00,,,0.00,WeatherCatV1.24B11,2014-09-22 12:45:00,
2014-09-22 08:50:00,60.0,54.2,29.89,West,281,3.0,11.0,81,0.00,,,0.00,WeatherCatV1.24B11,2014-09-22 12:50:00,
2014-09-22 08:55:00,60.2,54.7,29.89,WNW,297,5.0,8.0,82,0.00,,,0.00,WeatherCatV1.24B11,2014-09-22 12:55:00,
2014-09-22 09:00:00,60.4,54.5,29.90,NW,321,4.0,11.0,81,0.00,,,0.00,WeatherCatV1.24B11,2014-09-22 13:00:00,
2014-09-22 09:05:00,60.6,54.7,29.90,WNW,284,9.0,12.0,81,0.00,,,0.00,WeatherCatV1.24B11,2014-09-22 13:05:00,
2014-09-22 09:10:00,60.5,54.3,29.90,WNW,294,5.0,14.0,80,0.00,,,0.00,WeatherCatV1.24B11,2014-09-22 13:10:00,
2014-09-22 09:15:00,60.8,54.9,29.90,WNW,289,4.0,7.0,81,0.00,,,0.00,WeatherCatV1.24B11,2014-09-22 13:15:00,
2014-09-22 09:20:00,61.0,54.1,29.90,WNW,295,4.0,9.0,78,0.00,,,0.00,WeatherCatV1.24B11,2014-09-22 13:20:00,
2014-09-22 09:25:00,61.2,54.6,29.91,NW,317,3.0,10.0,79,0.00,,,0.00,WeatherCatV1.24B11,2014-09-22 13:25:00,
2014-09-22 09:30:00,61.2,53.6,29.91,NW,317,5.0,13.0,76,0.00,,,0.00,WeatherCatV1.24B11,2014-09-22 13:30:00,
2014-09-22 09:35:00,61.1,53.1,29.91,NW,305,6.0,13.0,75,0.00,,,0.00,WeatherCatV1.24B11,2014-09-22 13:35:00,
2014-09-22 09:40:00,60.9,52.9,29.91,WNW,300,5.0,19.0,75,0.00,,,0.00,WeatherCatV1.24B11,2014-09-22 13:40:00,
2014-09-22 09:45:00,61.1,53.5,29.91,West,279,7.0,16.0,76,0.00,,,0.00,WeatherCatV1.24B11,2014-09-22 13:45:00,
2014-09-22 09:50:00,61.1,52.8,29.92,NW,310,4.0,13.0,74,0.00,,,0.00,WeatherCatV1.24B11,2014-09-22 13:50:00,
2014-09-22 09:55:00,60.9,52.5,29.92,North,0,6.0,13.0,74,0.00,,,0.00,WeatherCatV1.24B11,2014-09-22 13:55:00,
2014-09-22 10:00:00,60.8,52.8,29.92,NW,307,6.0,11.0,75,0.00,,,0.00,WeatherCatV1.24B11,2014-09-22 14:00:00,
2014-09-22 10:05:00,60.6,52.3,29.92,NW,309,2.0,16.0,74,0.00,,,0.00,WeatherCatV1.24B11,2014-09-22 14:05:00,
2014-09-22 10:10:00,60.7,52.4,29.93,NW,315,9.0,10.0,74,0.00,,,0.00,WeatherCatV1.24B11,2014-09-22 14:10:00,
2014-09-22 10:15:00,61.0,53.0,29.93,NW,311,4.0,16.0,75,0.00,,,0.00,WeatherCatV1.24B11,2014-09-22 14:15:00,
2014-09-22 10:20:00,61.0,52.7,29.93,NW,318,14.0,18.0,74,0.00,,,0.00,WeatherCatV1.24B11,2014-09-22 14:20:00,
2014-09-22 10:25:00,61.3,53.3,29.93,WNW,303,5.0,16.0,75,0.00,,,0.00,WeatherCatV1.24B11,2014-09-22 14:25:00,
2014-09-22 10:30:00,61.4,53.0,29.93,NW,306,7.0,18.0,74,0.00,,,0.00,WeatherCatV1.24B11,2014-09-22 14:30:00,
2014-09-22 10:35:00,61.4,53.0,29.93,WNW,284,4.0,14.0,74,0.00,,,0.00,WeatherCatV1.24B11,2014-09-22 14:35:00,
2014-09-22 10:40:00,61.4,53.0,29.93,NW,325,1.0,5.0,74,0.00,,,0.00,WeatherCatV1.24B11,2014-09-22 14:40:00,
2014-09-22 10:45:00,61.8,53.0,29.93,WNW,284,4.0,14.0,73,0.00,,,0.00,WeatherCatV1.24B11,2014-09-22 14:45:00,
2014-09-22 10:50:00,61.8,52.7,29.94,NW,311,3.0,22.0,72,0.00,,,0.00,WeatherCatV1.24B11,2014-09-22 14:50:00,
2014-09-22 10:55:00,61.6,52.9,29.93,NNW,329,7.0,7.0,73,0.00,,,0.00,WeatherCatV1.24B11,2014-09-22 14:55:00,
2014-09-22 11:00:00,62.4,53.6,29.94,NW,320,5.0,12.0,73,0.00,,,0.00,WeatherCatV1.24B11,2014-09-22 15:00:00,
2014-09-22 11:05:00,62.9,53.7,29.93,NNW,344,13.0,15.0,72,0.00,,,0.00,WeatherCatV1.24B11,2014-09-22 15:05:00,
2014-09-22 11:10:00,62.7,53.2,29.94,WNW,293,6.0,16.0,71,0.00,,,0.00,WeatherCatV1.24B11,2014-09-22 15:10:00,
2014-09-22 11:15:00,62.8,54.0,29.94,NW,325,4.0,13.0,73,0.00,,,0.00,WeatherCatV1.24B11,2014-09-22 15:15:00,
2014-09-22 11:20:00,62.8,53.6,29.94,WNW,302,4.0,9.0,72,0.00,,,0.00,WeatherCatV1.24B11,2014-09-22 15:20:00,
2014-09-22 11:25:00,62.9,53.3,29.94,North,0,6.0,14.0,71,0.00,,,0.00,WeatherCatV1.24B11,2014-09-22 15:25:00,
2014-09-22 11:30:00,63.0,53.4,29.94,West,271,6.0,14.0,71,0.00,,,0.00,WeatherCatV1.24B11,2014-09-22 15:30:00,
2014-09-22 11:35:00,62.8,54.8,29.94,West,265,6.0,6.0,75,0.00,,,0.00,WeatherCatV1.24B11,2014-09-22 15:35:00,
2014-09-22 11:40:00,63.2,53.6,29.94,NW,304,4.0,10.0,71,0.00,,,0.00,WeatherCatV1.24B11,2014-09-22 15:40:00,
2014-09-22 11:45:00,63.0,53.8,29.94,NW,324,6.0,12.0,72,0.00,,,0.00,WeatherCatV1.24B11,2014-09-22 15:45:00,
2014-09-22 11:50:00,63.1,53.5,29.94,WNW,298,1.0,9.0,71,0.00,,,0.00,WeatherCatV1.24B11,2014-09-22 15:50:00,
2014-09-22 11:55:00,63.7,54.5,29.94,West,272,6.0,9.0,72,0.00,,,0.00,WeatherCatV1.24B11,2014-09-22 15:55:00,
2014-09-22 12:00:00,63.7,54.1,29.94,West,280,7.0,16.0,71,0.00,,,0.00,WeatherCatV1.24B11,2014-09-22 16:00:00,
2014-09-22 12:05:00,63.8,54.6,29.94,WNW,294,2.0,6.0,72,0.00,,,0.00,WeatherCatV1.24B11,2014-09-22 16:05:00,
2014-09-22 12:10:00,64.1,54.5,29.95,NW,315,3.0,7.0,71,0.00,,,0.00,WeatherCatV1.24B11,2014-09-22 16:10:00,
2014-09-22 12:15:00,64.2,53.8,29.94,WNW,302,5.0,15.0,69,0.00,,,0.00,WeatherCatV1.24B11,2014-09-22 16:15:00,
2014-09-22 12:20:00,64.0,53.6,29.94,NNW,348,11.0,14.0,69,0.00,,,0.00,WeatherCatV1.24B11,2014-09-22 16:20:00,
2014-09-22 12:25:00,64.3,55.1,29.95,NNW,327,6.0,13.0,72,0.00,,,0.00,WeatherCatV1.24B11,2014-09-22 16:25:00,
2014-09-22 12:30:00,64.1,53.7,29.95,NW,307,10.0,12.0,69,0.00,,,0.00,WeatherCatV1.24B11,2014-09-22 16:30:00,
2014-09-22 12:35:00,64.2,54.6,29.95,West,271,9.0,13.0,71,0.00,,,0.00,WeatherCatV1.24B11,2014-09-22 16:35:00,
2014-09-22 12:40:00,64.2,53.4,29.95,WNW,299,6.0,21.0,68,0.00,,,0.00,WeatherCatV1.24B11,2014-09-22 16:40:00,
2014-09-22 12:45:00,64.1,54.1,29.95,North,355,2.0,4.0,70,0.00,,,0.00,WeatherCatV1.24B11,2014-09-22 16:45:00,
2014-09-22 12:50:00,64.6,55.0,29.95,NW,319,11.0,16.0,71,0.00,,,0.00,WeatherCatV1.24B11,2014-09-22 16:50:00,
2014-09-22 12:55:00,64.2,54.6,29.95,WSW,250,8.0,11.0,71,0.00,,,0.00,WeatherCatV1.24B11,2014-09-22 16:55:00,
2014-09-22 13:00:00,64.3,55.1,29.96,West,279,11.0,19.0,72,0.00,,,0.00,WeatherCatV1.24B11,2014-09-22 17:00:00,
2014-09-22 13:05:00,64.5,54.9,29.95,WNW,288,14.0,20.0,71,0.00,,,0.00,WeatherCatV1.24B11,2014-09-22 17:05:00,
2014-09-22 13:10:00,64.6,54.6,29.96,NW,309,4.0,11.0,70,0.00,,,0.00,WeatherCatV1.24B11,2014-09-22 17:10:00,
2014-09-22 13:15:00,64.5,53.7,29.96,WNW,294,8.0,18.0,68,0.00,,,0.00,WeatherCatV1.24B11,2014-09-22 17:15:00,
2014-09-22 13:20:00,63.5,52.7,29.95,NNE,17,10.0,16.0,68,0.00,,,0.00,WeatherCatV1.24B11,2014-09-22 17:20:00,
2014-09-22 13:25:00,63.2,52.8,29.95,WNW,283,6.0,13.0,69,0.00,,,0.00,WeatherCatV1.24B11,2014-09-22 17:25:00,
2014-09-22 13:30:00,63.6,53.2,29.95,WNW,283,2.0,12.0,69,0.00,,,0.00,WeatherCatV1.24B11,2014-09-22 17:30:00,
2014-09-22 13:35:00,64.1,53.3,29.95,NNW,332,4.0,15.0,68,0.00,,,0.00,WeatherCatV1.24B11,2014-09-22 17:35:00,
2014-09-22 13:40:00,64.7,53.5,29.95,NW,309,5.0,14.0,67,0.00,,,0.00,WeatherCatV1.24B11,2014-09-22 17:40:00,
2014-09-22 13:45:00,64.6,53.8,29.95,NNW,338,4.0,9.0,68,0.00,,,0.00,WeatherCatV1.24B11,2014-09-22 17:45:00,
2014-09-22 13:50:00,64.7,53.1,29.95,WNW,286,16.0,16.0,66,0.00,,,0.00,WeatherCatV1.24B11,2014-09-22 17:50:00,
2014-09-22 13:55:00,64.5,52.9,29.95,West,269,13.0,15.0,66,0.00,,,0.00,WeatherCatV1.24B11,2014-09-22 17:55:00,
2014-09-22 14:00:00,64.5,53.7,29.95,WNW,284,10.0,11.0,68,0.00,,,0.00,WeatherCatV1.24B11,2014-09-22 18:00:00,
2014-09-22 14:05:00,64.6,53.0,29.95,NNW,331,11.0,11.0,66,0.00,,,0.00,WeatherCatV1.24B11,2014-09-22 18:05:00,
2014-09-22 14:10:00,64.8,54.0,29.95,NW,317,4.0,12.0,68,0.00,,,0.00,WeatherCatV1.24B11,2014-09-22 18:10:00,
2014-09-22 14:15:00,64.9,52.8,29.95,NW,306,7.0,18.0,65,0.00,,,0.00,WeatherCatV1.24B11,2014-09-22 18:15:00,
2014-09-22 14:20:00,64.8,53.6,29.95,West,264,11.0,17.0,67,0.00,,,0.00,WeatherCatV1.24B11,2014-09-22 18:20:00,
2014-09-22 14:25:00,65.2,53.1,29.95,NNW,331,5.0,18.0,65,0.00,,,0.00,WeatherCatV1.24B11,2014-09-22 18:25:00,
2014-09-22 14:30:00,65.7,53.6,29.95,NW,320,12.0,16.0,65,0.00,,,0.00,WeatherCatV1.24B11,2014-09-22 18:30:00,
2014-09-22 14:35:00,65.4,53.7,29.95,West,267,6.0,11.0,66,0.00,,,0.00,WeatherCatV1.24B11,2014-09-22 18:35:00,
2014-09-22 14:40:00,65.4,53.3,29.95,NW,321,7.0,16.0,65,0.00,,,0.00,WeatherCatV1.24B11,2014-09-22 18:40:00,
2014-09-22 14:45:00,65.6,53.9,29.95,NNW,340,10.0,11.0,66,0.00,,,0.00,WeatherCatV1.24B11,2014-09-22 18:45:00,
2014-09-22 14:50:00,66.0,53.9,29.95,NNW,331,5.0,14.0,65,0.00,,,0.00,WeatherCatV1.24B11,2014-09-22 18:50:00,
2014-09-22 14:55:00,66.2,53.7,29.95,NW,309,5.0,10.0,64,0.00,,,0.00,WeatherCatV1.24B11,2014-09-22 18:55:00,
2014-09-22 15:00:00,65.8,53.3,29.95,NW,323,10.0,15.0,64,0.00,,,0.00,WeatherCatV1.24B11,2014-09-22 19:00:00,
2014-09-22 15:05:00,65.8,53.3,29.96,West,279,4.0,9.0,64,0.00,,,0.00,WeatherCatV1.24B11,2014-09-22 19:05:00,
2014-09-22 15:10:00,65.9,52.9,29.96,West,278,9.0,12.0,63,0.00,,,0.00,WeatherCatV1.24B11,2014-09-22 19:10:00,
2014-09-22 15:15:00,65.6,52.7,29.96,NW,323,2.0,9.0,63,0.00,,,0.00,WeatherCatV1.24B11,2014-09-22 19:15:00,
2014-09-22 15:20:00,65.5,53.0,29.96,NW,307,7.0,14.0,64,0.00,,,0.00,WeatherCatV1.24B11,2014-09-22 19:20:00,
2014-09-22 15:25:00,65.3,52.8,29.96,WNW,298,1.0,16.0,64,0.00,,,0.00,WeatherCatV1.24B11,2014-09-22 19:25:00,
2014-09-22 15:30:00,65.4,52.9,29.97,NW,313,5.0,12.0,64,0.00,,,0.00,WeatherCatV1.24B11,2014-09-22 19:30:00,
2014-09-22 15:35:00,65.7,52.8,29.97,WSW,256,8.0,9.0,63,0.00,,,0.00,WeatherCatV1.24B11,2014-09-22 19:35:00,
2014-09-22 15:40:00,65.4,52.0,29.97,WNW,299,4.0,14.0,62,0.00,,,0.00,WeatherCatV1.24B11,2014-09-22 19:40:00,
2014-09-22 15:45:00,64.7,51.8,29.97,West,274,6.0,10.0,63,0.00,,,0.00,WeatherCatV1.24B11,2014-09-22 19:45:00,
2014-09-22 15:50:00,64.3,51.9,29.97,West,269,8.0,12.0,64,0.00,,,0.00,WeatherCatV1.24B11,2014-09-22 19:50:00,
2014-09-22 15:55:00,64.7,52.2,29.97,West,273,11.0,11.0,64,0.00,,,0.00,WeatherCatV1.24B11,2014-09-22 19:55:00,
2014-09-22 16:00:00,65.0,52.1,29.97,WNW,300,5.0,13.0,63,0.00,,,0.00,WeatherCatV1.24B11,2014-09-22 20:00:00,
2014-09-22 16:05:00,65.0,52.1,29.97,West,271,18.0,18.0,63,0.00,,,0.00,WeatherCatV1.24B11,2014-09-22 20:05:00,
2014-09-22 16:09:00,64.8,51.9,29.97,WNW,296,3.0,11.0,63,0.00,,,0.00,WeatherCatV1.24B11,2014-09-22 20:09:00,
2014-09-22 16:14:00,64.9,52.4,29.97,WNW,291,9.0,17.0,64,0.00,,,0.00,WeatherCatV1.24B11,2014-09-22 20:14:00,
2014-09-22 16:19:00,64.8,52.3,29.97,WNW,284,6.0,10.0,64,0.00,,,0.00,WeatherCatV1.24B11,2014-09-22 20:19:00,
2014-09-22 16:24:00,64.9,52.0,29.97,West,278,4.0,17.0,63,0.00,,,0.00,WeatherCatV1.24B11,2014-09-22 20:24:00,
2014-09-22 16:30:00,65.0,52.5,29.98,NNW,334,10.0,10.0,64,0.00,,,0.00,WeatherCatV1.24B11,2014-09-22 20:30:00,